createdAt,value
2022-12-11T00:00:46.066Z,99337.91
2022-12-11T00:03:15.861Z,99337.22
2022-12-11T00:05:44.234Z,99334.75
2022-12-11T00:08:11.232Z,99334.81
2022-12-11T00:10:38.146Z,99331.38
2022-12-11T00:13:04.820Z,99327.84
2022-12-11T00:15:31.185Z,99323.53
2022-12-11T00:17:57.491Z,99318.25
2022-12-11T00:20:23.833Z,99321.63
2022-12-11T00:22:50.145Z,99315.56
2022-12-11T00:25:16.521Z,99318.03
2022-12-11T00:27:42.861Z,99316.34
2022-12-11T00:30:09.754Z,99311.16
2022-12-11T00:32:37.764Z,99314.59
2022-12-11T00:35:04.550Z,99305.94
2022-12-11T00:37:30.878Z,99309.41
2022-12-11T00:39:57.225Z,99313.66
2022-12-11T00:42:23.622Z,99321.44
2022-12-11T00:44:50.795Z,99314.47
2022-12-11T00:47:17.095Z,99317.13
2022-12-11T00:49:49.406Z,99318.00
2022-12-11T00:52:17.653Z,99311.06
2022-12-11T00:57:30.298Z,99319.72
2022-12-11T00:59:56.679Z,99317.94
2022-12-11T01:02:25.437Z,99316.28
2022-12-11T01:04:51.834Z,99312.78
2022-12-11T01:07:18.260Z,99315.38
2022-12-11T01:10:04.175Z,99319.72
2022-12-11T01:12:30.537Z,99316.25
2022-12-11T01:14:56.890Z,99309.25
2022-12-11T01:17:25.643Z,99309.19
2022-12-11T01:19:54.279Z,99309.09
2022-12-11T01:22:21.118Z,99317.66
2022-12-11T01:24:53.739Z,99308.16
2022-12-11T01:27:20.095Z,99311.44
2022-12-11T01:29:46.606Z,99308.81
2022-12-11T01:32:13.020Z,99311.41
2022-12-11T01:34:39.583Z,99322.66
2022-12-11T01:37:11.988Z,99321.91
2022-12-11T01:39:41.297Z,99323.66
2022-12-11T01:42:16.947Z,99320.25
2022-12-11T01:44:43.256Z,99320.25
2022-12-11T01:47:20.052Z,99322.94
2022-12-11T01:49:46.401Z,99331.56
2022-12-11T01:52:27.012Z,99326.44
2022-12-11T01:54:53.380Z,99326.34
2022-12-11T01:57:42.692Z,99323.94
2022-12-11T02:00:09.925Z,99321.28
2022-12-11T02:02:42.754Z,99323.19
2022-12-11T02:05:09.439Z,99325.78
2022-12-11T02:07:44.653Z,99333.66
2022-12-11T02:10:14.181Z,99326.00
2022-12-11T02:12:43.197Z,99326.16
2022-12-11T02:15:17.849Z,99319.41
2022-12-11T02:18:22.701Z,99326.59
2022-12-11T02:21:08.879Z,99314.63
2022-12-11T02:24:01.411Z,99313.78
2022-12-11T02:27:25.270Z,99309.59
2022-12-11T02:30:42.256Z,99314.81
2022-12-11T02:33:20.371Z,99312.25
2022-12-11T02:35:49.254Z,99308.88
2022-12-11T02:38:31.462Z,99317.63
2022-12-11T02:41:00.496Z,99324.41
2022-12-11T02:43:28.935Z,99322.63
2022-12-11T02:45:56.755Z,99318.19
2022-12-11T02:48:28.721Z,99324.22
2022-12-11T02:50:59.479Z,99324.09
2022-12-11T02:53:31.118Z,99321.38
2022-12-11T02:56:08.039Z,99315.31
2022-12-11T02:58:38.193Z,99318.66
2022-12-11T03:01:04.754Z,99313.41
2022-12-11T03:03:31.276Z,99320.28
2022-12-11T03:05:57.892Z,99311.59
2022-12-11T03:08:24.385Z,99311.53
2022-12-11T03:11:20.446Z,99315.06
2022-12-11T03:13:46.842Z,99317.59
2022-12-11T03:16:35.022Z,99315.94
2022-12-11T03:19:31.860Z,99308.13
2022-12-11T03:22:26.856Z,99318.53
2022-12-11T03:25:04.956Z,99313.34
2022-12-11T03:28:04.195Z,99314.22
2022-12-11T03:30:33.457Z,99315.03
2022-12-11T03:33:37.787Z,99320.31
2022-12-11T03:36:11.083Z,99316.91
2022-12-11T03:39:13.186Z,99321.47
2022-12-11T03:41:41.024Z,99320.63
2022-12-11T03:44:08.710Z,99318.25
2022-12-11T03:46:39.766Z,99314.06
2022-12-11T03:49:13.019Z,99309.88
2022-12-11T03:52:01.802Z,99314.34
2022-12-11T03:54:29.078Z,99306.56
2022-12-11T03:56:58.526Z,99315.28
2022-12-11T03:59:24.949Z,99319.66
2022-12-11T04:02:10.926Z,99317.31
2022-12-11T04:04:38.880Z,99316.41
2022-12-11T04:07:07.889Z,99314.72
2022-12-11T04:09:34.614Z,99312.97
2022-12-11T04:12:01.040Z,99315.56
2022-12-11T04:14:48.300Z,99319.09
2022-12-11T04:17:34.637Z,99313.09
2022-12-11T04:23:24.107Z,99322.63
2022-12-11T04:25:51.683Z,99317.38
2022-12-11T04:28:18.048Z,99321.69
2022-12-11T04:30:49.894Z,99311.28
2022-12-11T04:33:16.736Z,99308.66
2022-12-11T04:36:20.443Z,99308.69
2022-12-11T04:38:47.056Z,99302.63
2022-12-11T04:41:26.769Z,99307.91
2022-12-11T04:43:53.134Z,99293.13
2022-12-11T04:46:23.269Z,99306.09
2022-12-11T04:48:56.829Z,99300.03
2022-12-11T04:51:23.973Z,99290.44
2022-12-11T04:53:51.438Z,99299.91
2022-12-11T04:56:25.927Z,99287.84
2022-12-11T04:58:54.425Z,99297.25
2022-12-11T05:01:22.635Z,99294.66
2022-12-11T05:04:09.303Z,99291.31
2022-12-11T05:06:35.664Z,99292.06
2022-12-11T05:09:02.047Z,99289.53
2022-12-11T05:11:43.595Z,99294.88
2022-12-11T05:14:09.960Z,99284.47
2022-12-11T05:16:36.443Z,99293.13
2022-12-11T05:19:02.795Z,99287.06
2022-12-11T05:22:02.545Z,99295.72
2022-12-11T05:24:29.030Z,99296.47
2022-12-11T05:26:57.594Z,99294.66
2022-12-11T05:29:23.965Z,99298.06
2022-12-11T05:31:56.493Z,99290.28
2022-12-11T05:34:22.952Z,99294.47
2022-12-11T05:37:23.366Z,99284.97
2022-12-11T05:39:49.732Z,99296.91
2022-12-11T05:42:16.130Z,99288.22
2022-12-11T05:44:45.673Z,99282.16
2022-12-11T05:47:12.026Z,99275.97
2022-12-11T05:49:38.442Z,99272.44
2022-12-11T05:52:17.462Z,99275.03
2022-12-11T05:54:44.013Z,99278.28
2022-12-11T05:57:11.634Z,99281.69
2022-12-11T05:59:38.255Z,99285.00
2022-12-11T06:02:04.717Z,99290.13
2022-12-11T06:04:31.127Z,99296.97
2022-12-11T06:06:58.736Z,99291.69
2022-12-11T06:09:25.115Z,99289.03
2022-12-11T06:11:51.470Z,99290.75
2022-12-11T06:14:19.040Z,99283.84
2022-12-11T06:16:45.424Z,99280.44
2022-12-11T06:19:18.462Z,99284.88
2022-12-11T06:21:46.403Z,99285.78
2022-12-11T06:24:12.837Z,99281.59
2022-12-11T06:27:02.180Z,99284.44
2022-12-11T06:29:28.661Z,99292.16
2022-12-11T06:32:04.515Z,99288.88
2022-12-11T06:34:30.935Z,99286.28
2022-12-11T06:36:57.433Z,99282.91
2022-12-11T06:39:23.812Z,99275.13
2022-12-11T06:41:50.275Z,99282.91
2022-12-11T06:44:16.639Z,99271.56
2022-12-11T06:46:45.280Z,99279.31
2022-12-11T06:49:11.596Z,99274.03
2022-12-11T06:51:40.318Z,99276.56
2022-12-11T06:54:06.683Z,99277.38
2022-12-11T06:59:43.856Z,99274.91
2022-12-11T07:02:13.648Z,99286.28
2022-12-11T07:04:40.784Z,99277.72
2022-12-11T07:07:08.229Z,99283.00
2022-12-11T07:09:35.328Z,99286.50
2022-12-11T07:12:01.683Z,99286.50
2022-12-11T07:14:27.980Z,99293.38
2022-12-11T07:16:54.368Z,99291.59
2022-12-11T07:19:20.721Z,99298.44
2022-12-11T07:21:47.068Z,99286.25
2022-12-11T07:24:13.381Z,99284.47
2022-12-11T07:26:39.692Z,99284.44
2022-12-11T07:29:06.193Z,99285.22
2022-12-11T07:31:32.605Z,99287.72
2022-12-11T07:34:02.298Z,99291.13
2022-12-11T07:36:30.102Z,99285.84
2022-12-11T07:38:56.526Z,99285.75
2022-12-11T07:41:23.553Z,99279.66
2022-12-11T07:43:49.912Z,99285.63
2022-12-11T07:46:18.966Z,99289.03
2022-12-11T07:48:47.336Z,99285.53
2022-12-11T07:51:17.202Z,99286.28
2022-12-11T07:53:50.246Z,99287.16
2022-12-11T07:56:17.639Z,99287.06
2022-12-11T07:58:45.144Z,99290.44
2022-12-11T08:01:26.069Z,99285.28
2022-12-11T08:03:53.544Z,99287.75
2022-12-11T08:06:24.143Z,99283.34
2022-12-11T08:08:50.459Z,99296.28
2022-12-11T08:11:16.809Z,99287.63
2022-12-11T08:13:43.458Z,99283.28
2022-12-11T08:16:13.345Z,99292.81
2022-12-11T08:18:41.215Z,99291.06
2022-12-11T08:21:16.535Z,99292.03
2022-12-11T08:23:43.828Z,99295.56
2022-12-11T08:26:14.895Z,99299.22
2022-12-11T08:28:41.456Z,99300.28
2022-12-11T08:31:09.263Z,99302.22
2022-12-11T08:33:37.333Z,99305.00
2022-12-11T08:36:05.508Z,99308.59
2022-12-11T08:38:31.800Z,99306.03
2022-12-11T08:40:58.237Z,99309.53
2022-12-11T08:43:24.914Z,99305.22
2022-12-11T08:45:51.371Z,99307.81
2022-12-11T08:48:17.728Z,99304.31
2022-12-11T08:50:44.196Z,99311.19
2022-12-11T08:53:10.556Z,99307.72
2022-12-11T08:55:36.933Z,99309.47
2022-12-11T08:58:03.656Z,99304.22
2022-12-11T09:00:30.019Z,99297.31
2022-12-11T09:02:56.402Z,99293.84
2022-12-11T09:05:22.730Z,99298.13
2022-12-11T09:07:49.226Z,99285.91
2022-12-11T09:10:15.611Z,99302.38
2022-12-11T09:12:42.614Z,99290.16
2022-12-11T09:15:09.497Z,99291.72
2022-12-11T09:17:35.961Z,99293.38
2022-12-11T09:20:02.297Z,99282.00
2022-12-11T09:22:28.614Z,99288.84
2022-12-11T09:24:54.982Z,99285.25
2022-12-11T09:27:22.067Z,99281.59
2022-12-11T09:29:48.393Z,99284.91
2022-12-11T09:32:14.775Z,99283.06
2022-12-11T09:34:41.095Z,99278.56
2022-12-11T09:37:07.559Z,99279.25
2022-12-11T09:39:33.868Z,99276.53
2022-12-11T09:42:10.736Z,99273.84
2022-12-11T09:44:46.261Z,99276.31
2022-12-11T09:47:21.035Z,99277.03
2022-12-11T09:49:53.182Z,99275.16
2022-12-11T09:52:34.269Z,99267.34
2022-12-11T09:55:06.982Z,99268.03
2022-12-11T09:57:46.133Z,99256.69
2022-12-11T10:00:19.983Z,99256.59
2022-12-11T10:03:27.826Z,99253.97
2022-12-11T10:06:07.237Z,99257.34
2022-12-11T10:08:50.166Z,99255.63
2022-12-11T10:11:38.712Z,99257.25
2022-12-11T10:14:38.798Z,99256.41
2022-12-11T10:17:18.743Z,99257.22
2022-12-11T10:19:45.448Z,99258.84
2022-12-11T10:22:18.952Z,99255.41
2022-12-11T10:25:10.627Z,99259.69
2022-12-11T10:27:40.262Z,99266.53
2022-12-11T10:30:12.995Z,99262.19
2022-12-11T10:32:51.180Z,99263.06
2022-12-11T10:35:29.448Z,99262.97
2022-12-11T10:38:02.364Z,99268.06
2022-12-11T10:40:29.055Z,99261.13
2022-12-11T10:42:55.449Z,99262.72
2022-12-11T10:45:21.772Z,99256.66
2022-12-11T10:47:48.138Z,99261.03
2022-12-11T10:50:26.083Z,99254.16
2022-12-11T10:52:53.300Z,99260.06
2022-12-11T10:55:30.427Z,99256.66
2022-12-11T10:58:00.535Z,99259.09
2022-12-11T11:00:34.553Z,99253.03
2022-12-11T11:03:02.537Z,99254.63
2022-12-11T11:05:35.281Z,99254.63
2022-12-11T11:08:11.399Z,99258.03
2022-12-11T11:10:37.875Z,99250.09
2022-12-11T11:13:04.258Z,99254.41
2022-12-11T11:15:31.138Z,99255.25
2022-12-11T11:18:04.258Z,99250.91
2022-12-11T11:20:31.407Z,99244.75
2022-12-11T11:23:03.118Z,99242.09
2022-12-11T11:25:32.581Z,99241.13
2022-12-11T11:28:02.458Z,99232.41
2022-12-11T11:30:35.743Z,99227.16
2022-12-11T11:33:05.335Z,99228.84
2022-12-11T11:35:32.621Z,99232.25
2022-12-11T11:38:18.183Z,99223.69
2022-12-11T11:41:04.854Z,99227.91
2022-12-11T11:43:42.467Z,99220.00
2022-12-11T11:46:23.247Z,99224.31
2022-12-11T11:49:04.151Z,99215.66
2022-12-11T11:51:37.087Z,99221.66
2022-12-11T11:54:09.192Z,99212.03
2022-12-11T11:56:37.569Z,99217.97
2022-12-11T11:59:31.592Z,99220.72
2022-12-11T12:01:58.850Z,99216.34
2022-12-11T12:04:34.803Z,99220.81
2022-12-11T12:07:38.677Z,99218.31
2022-12-11T12:10:34.575Z,99208.69
2022-12-11T12:13:30.080Z,99221.59
2022-12-11T12:15:59.368Z,99214.69
2022-12-11T12:19:12.167Z,99215.72
2022-12-11T12:21:39.323Z,99217.34
2022-12-11T12:24:05.599Z,99213.88
2022-12-11T12:26:37.015Z,99211.34
2022-12-11T12:29:44.699Z,99209.69
2022-12-11T12:32:23.371Z,99207.00
2022-12-11T12:35:31.835Z,99208.81
2022-12-11T12:38:18.261Z,99209.59
2022-12-11T12:40:44.581Z,99202.50
2022-12-11T12:43:43.995Z,99206.06
2022-12-11T12:46:34.403Z,99210.31
2022-12-11T12:49:02.526Z,99204.16
2022-12-11T12:51:30.023Z,99215.38
2022-12-11T12:54:04.634Z,99214.50
2022-12-11T12:59:23.670Z,99211.91
2022-12-11T13:01:55.108Z,99217.00
2022-12-11T13:04:59.151Z,99214.50
2022-12-11T13:07:30.064Z,99207.59
2022-12-11T13:10:06.881Z,99207.72
2022-12-11T13:12:41.851Z,99201.06
2022-12-11T13:15:29.317Z,99205.50
2022-12-11T13:17:56.093Z,99209.88
2022-12-11T13:20:25.275Z,99208.19
2022-12-11T13:23:06.729Z,99205.69
2022-12-11T13:25:49.940Z,99196.13
2022-12-11T13:28:27.204Z,99199.44
2022-12-11T13:31:15.657Z,99199.34
2022-12-11T13:34:03.354Z,99195.09
2022-12-11T13:36:38.121Z,99200.31
2022-12-11T13:39:06.599Z,99206.38
2022-12-11T13:41:36.607Z,99202.91
2022-12-11T13:44:04.780Z,99206.38
2022-12-11T13:46:35.657Z,99206.44
2022-12-11T13:49:06.734Z,99205.50
2022-12-11T13:51:37.771Z,99201.22
2022-12-11T13:54:17.758Z,99208.19
2022-12-11T13:57:06.048Z,99215.09
2022-12-11T13:59:37.824Z,99214.13
2022-12-11T14:02:14.998Z,99215.81
2022-12-11T14:04:41.880Z,99215.72
2022-12-11T14:07:10.744Z,99217.41
2022-12-11T14:09:44.037Z,99215.72
2022-12-11T14:12:20.225Z,99218.31
2022-12-11T14:14:51.691Z,99219.09
2022-12-11T14:17:25.413Z,99217.41
2022-12-11T14:19:53.349Z,99217.41
2022-12-11T14:22:26.128Z,99210.50
2022-12-11T14:25:03.434Z,99216.63
2022-12-11T14:27:30.704Z,99222.59
2022-12-11T14:29:57.244Z,99219.22
2022-12-11T14:32:31.650Z,99213.16
2022-12-11T14:35:00.286Z,99219.22
2022-12-11T14:37:28.455Z,99220.91
2022-12-11T14:40:03.305Z,99213.22
2022-12-11T14:43:07.387Z,99214.13
2022-12-11T14:45:38.828Z,99209.75
2022-12-11T14:48:13.742Z,99214.13
2022-12-11T14:50:50.634Z,99216.78
2022-12-11T14:53:27.087Z,99210.84
2022-12-11T14:55:54.847Z,99220.31
2022-12-11T14:58:23.662Z,99213.41
2022-12-11T15:01:30.392Z,99207.44
2022-12-11T15:04:16.109Z,99209.94
2022-12-11T15:06:48.130Z,99211.63
2022-12-11T15:09:17.553Z,99209.84
2022-12-11T15:11:46.452Z,99209.84
2022-12-11T15:14:13.788Z,99209.84
2022-12-11T15:16:42.422Z,99213.31
2022-12-11T15:19:29.990Z,99211.63
2022-12-11T15:22:02.675Z,99209.03
2022-12-11T15:24:48.251Z,99213.41
2022-12-11T15:27:41.177Z,99212.50
2022-12-11T15:30:35.009Z,99219.44
2022-12-11T15:33:10.443Z,99214.22
2022-12-11T15:35:39.195Z,99222.00
2022-12-11T15:38:29.211Z,99224.69
2022-12-11T15:40:56.211Z,99226.34
2022-12-11T15:43:22.999Z,99224.66
2022-12-11T15:45:49.527Z,99234.22
2022-12-11T15:48:16.943Z,99236.88
2022-12-11T15:50:43.287Z,99240.38
2022-12-11T15:53:11.808Z,99238.69
2022-12-11T15:55:39.115Z,99231.78
2022-12-11T15:58:18.553Z,99233.56
2022-12-11T16:00:45.013Z,99233.47
2022-12-11T16:03:16.625Z,99239.59
2022-12-11T16:05:43.543Z,99241.28
2022-12-11T16:08:24.730Z,99241.38
2022-12-11T16:10:53.817Z,99249.09
2022-12-11T16:13:20.880Z,99245.56
2022-12-11T16:15:55.527Z,99244.84
2022-12-11T16:18:23.432Z,99241.28
2022-12-11T16:20:51.260Z,99247.34
2022-12-11T16:23:20.902Z,99249.94
2022-12-11T16:25:47.856Z,99247.28
2022-12-11T16:28:16.358Z,99245.56
2022-12-11T16:30:43.400Z,99252.50
2022-12-11T16:33:13.403Z,99245.56
2022-12-11T16:35:41.315Z,99244.69
2022-12-11T16:38:20.926Z,99245.66
2022-12-11T16:40:47.302Z,99247.28
2022-12-11T16:43:21.945Z,99247.34
2022-12-11T16:45:54.258Z,99242.09
2022-12-11T16:48:21.824Z,99249.84
2022-12-11T16:50:48.319Z,99245.47
2022-12-11T16:53:15.282Z,99241.19
2022-12-11T16:55:42.724Z,99247.28
2022-12-11T16:58:19.920Z,99242.19
2022-12-11T17:00:48.013Z,99243.88
2022-12-11T17:03:14.804Z,99247.41
2022-12-11T17:05:43.147Z,99247.41
2022-12-11T17:08:09.730Z,99243.97
2022-12-11T17:10:41.013Z,99244.91
2022-12-11T17:13:09.520Z,99245.81
2022-12-11T17:15:40.915Z,99243.25
2022-12-11T17:18:09.212Z,99237.16
2022-12-11T17:20:39.962Z,99238.06
2022-12-11T17:23:10.585Z,99245.88
2022-12-11T17:25:41.924Z,99243.25
2022-12-11T17:28:11.692Z,99251.00
2022-12-11T17:30:43.295Z,99248.41
2022-12-11T17:33:10.894Z,99251.78
2022-12-11T17:35:37.746Z,99246.59
2022-12-11T17:38:12.241Z,99242.28
2022-12-11T17:40:43.166Z,99244.91
2022-12-11T17:43:15.698Z,99250.06
2022-12-11T17:45:47.627Z,99245.72
2022-12-11T17:48:14.497Z,99243.88
2022-12-11T17:50:44.949Z,99249.94
2022-12-11T17:53:12.850Z,99243.88
2022-12-11T17:55:45.425Z,99246.53
2022-12-11T17:58:21.674Z,99244.84
2022-12-11T18:00:50.471Z,99250.06
2022-12-11T18:03:18.702Z,99252.69
2022-12-11T18:05:47.911Z,99253.63
2022-12-11T18:08:16.368Z,99251.97
2022-12-11T18:10:43.352Z,99244.22
2022-12-11T18:13:10.137Z,99240.84
2022-12-11T18:15:37.295Z,99248.75
2022-12-11T18:18:04.910Z,99250.63
2022-12-11T18:20:32.729Z,99248.16
2022-12-11T18:22:59.763Z,99249.19
2022-12-11T18:25:33.333Z,99254.72
2022-12-11T18:28:00.083Z,99254.75
2022-12-11T18:30:26.636Z,99255.81
2022-12-11T18:32:55.175Z,99249.16
2022-12-11T18:35:21.693Z,99252.69
2022-12-11T18:37:48.145Z,99246.75
2022-12-11T18:40:16.829Z,99249.44
2022-12-11T18:42:43.186Z,99252.03
2022-12-11T18:45:10.236Z,99252.00
2022-12-11T18:47:37.294Z,99258.88
2022-12-11T18:50:07.897Z,99250.19
2022-12-11T18:52:58.642Z,99250.25
2022-12-11T18:55:25.056Z,99251.75
2022-12-11T19:00:49.539Z,99244.59
2022-12-11T19:03:15.921Z,99244.47
2022-12-11T19:05:43.683Z,99238.28
2022-12-11T19:08:12.458Z,99242.63
2022-12-11T19:10:44.041Z,99239.06
2022-12-11T19:13:11.277Z,99245.03
2022-12-11T19:15:39.783Z,99240.66
2022-12-11T19:18:06.403Z,99243.19
2022-12-11T19:23:23.176Z,99240.47
2022-12-11T19:25:50.406Z,99236.94
2022-12-11T19:28:18.388Z,99246.47
2022-12-11T19:30:46.310Z,99253.38
2022-12-11T19:33:13.112Z,99248.16
2022-12-11T19:35:39.967Z,99248.16
2022-12-11T19:38:08.130Z,99248.16
2022-12-11T19:40:42.884Z,99247.31
2022-12-11T19:43:09.939Z,99247.25
2022-12-11T19:45:36.417Z,99247.25
2022-12-11T19:48:02.884Z,99249.88
2022-12-11T19:50:29.247Z,99248.13
2022-12-11T19:52:55.596Z,99250.72
2022-12-11T19:55:21.958Z,99251.56
2022-12-11T19:57:48.268Z,99252.47
2022-12-11T20:00:14.953Z,99254.16
2022-12-11T20:02:41.259Z,99254.16
2022-12-11T20:05:08.540Z,99252.47
2022-12-11T20:07:34.930Z,99251.56
2022-12-11T20:10:01.273Z,99254.25
2022-12-11T20:12:28.404Z,99255.97
2022-12-11T20:14:54.722Z,99257.72
2022-12-11T20:17:21.078Z,99260.38
2022-12-11T20:19:47.406Z,99255.16
2022-12-11T20:22:13.749Z,99256.94
2022-12-11T20:24:40.457Z,99264.75
2022-12-11T20:27:06.807Z,99256.94
2022-12-11T20:29:33.119Z,99260.44
2022-12-11T20:32:00.342Z,99265.56
2022-12-11T20:34:27.393Z,99259.53
2022-12-11T20:36:54.074Z,99259.50
2022-12-11T20:39:20.398Z,99261.22
2022-12-11T20:41:46.730Z,99258.69
2022-12-11T20:44:13.054Z,99257.84
2022-12-11T20:46:39.367Z,99261.28
2022-12-11T20:49:09.755Z,99261.41
2022-12-11T20:51:36.059Z,99256.22
2022-12-11T20:54:02.395Z,99251.06
2022-12-11T20:56:30.700Z,99252.00
2022-12-11T20:58:58.519Z,99251.16
2022-12-11T21:01:27.093Z,99256.34
2022-12-11T21:03:53.799Z,99255.44
2022-12-11T21:06:23.567Z,99255.41
2022-12-11T21:08:49.885Z,99253.66
2022-12-11T21:11:16.395Z,99257.09
2022-12-11T21:13:43.119Z,99254.44
2022-12-11T21:16:10.456Z,99257.84
2022-12-11T21:18:37.458Z,99259.53
2022-12-11T21:21:04.292Z,99261.22
2022-12-11T21:23:30.771Z,99262.09
2022-12-11T21:25:57.163Z,99259.44
2022-12-11T21:28:23.484Z,99257.66
2022-12-11T21:30:49.807Z,99252.47
2022-12-11T21:33:16.111Z,99251.63
2022-12-11T21:35:42.481Z,99259.44
2022-12-11T21:38:08.837Z,99255.13
2022-12-11T21:40:35.637Z,99255.16
2022-12-11T21:43:02.197Z,99256.06
2022-12-11T21:45:59.753Z,99251.78
2022-12-11T21:48:15.190Z,99250.91
2022-12-11T21:50:42.789Z,99257.91
2022-12-11T21:53:09.334Z,99250.09
2022-12-11T21:55:40.183Z,99253.59
2022-12-11T21:58:06.665Z,99262.25
2022-12-11T22:00:35.633Z,99248.41
2022-12-11T22:03:01.937Z,99249.19
2022-12-11T22:05:28.222Z,99254.38
2022-12-11T22:07:54.591Z,99256.94
2022-12-11T22:10:21.010Z,99255.16
2022-12-11T22:12:47.336Z,99253.47
2022-12-11T22:15:13.892Z,99263.06
2022-12-11T22:17:40.455Z,99265.69
2022-12-11T22:20:07.111Z,99263.19
2022-12-11T22:22:33.462Z,99270.13
2022-12-11T22:25:00.033Z,99271.97
2022-12-11T22:27:26.359Z,99268.44
2022-12-11T22:29:52.847Z,99279.66
2022-12-11T22:32:19.190Z,99271.00
2022-12-11T22:34:45.772Z,99273.59
2022-12-11T22:37:12.087Z,99271.00
2022-12-11T22:39:38.431Z,99271.00
2022-12-11T22:42:04.751Z,99271.91
2022-12-11T22:44:31.059Z,99268.41
2022-12-11T22:46:57.382Z,99269.31
2022-12-11T22:49:23.719Z,99263.16
2022-12-11T22:51:50.264Z,99262.25
2022-12-11T22:54:16.580Z,99265.69
2022-12-11T22:56:43.557Z,99263.06
2022-12-11T22:59:09.929Z,99270.00
2022-12-11T23:01:36.284Z,99271.69
2022-12-11T23:04:02.661Z,99270.78
2022-12-11T23:06:29.065Z,99259.59
2022-12-11T23:08:59.260Z,99261.31
2022-12-11T23:11:28.863Z,99263.94
2022-12-11T23:13:55.709Z,99273.38
2022-12-11T23:16:25.644Z,99280.34
2022-12-11T23:18:52.063Z,99271.63
2022-12-11T23:21:18.523Z,99275.94
2022-12-11T23:23:44.825Z,99271.59
2022-12-11T23:26:13.001Z,99269.84
2022-12-11T23:28:40.313Z,99270.69
2022-12-11T23:31:06.888Z,99272.38
2022-12-11T23:33:33.294Z,99275.81
2022-12-11T23:35:59.742Z,99278.44
2022-12-11T23:38:26.370Z,99271.44
2022-12-11T23:40:53.336Z,99277.47
2022-12-11T23:43:19.688Z,99272.25
2022-12-11T23:45:46.659Z,99270.53
2022-12-11T23:48:13.474Z,99267.91
2022-12-11T23:50:41.214Z,99274.81
2022-12-11T23:53:07.874Z,99274.81
2022-12-11T23:55:34.187Z,99284.38
2022-12-11T23:58:00.859Z,99280.94
